TRA5575 EDDH-EBOS
Flight info
| Callsign | TRA5575 |
|---|---|
| Flight time | N/A |
| Altitude | 36000 |
| Route | WSN4B WSN N125 ITMIZ DCT SUSET/N0428F370 Z310 WOODY N872 NIK L179 COA |
| Aircraft | B737/M-SDE2E3FGHIRWXY/LB1 |
Departure
| Time | 2026-05-01 15:08 |
|---|---|
| Airport | Hamburg Helmut Schmidt Airport (EDDH) |
Arrival
| Time | N/A |
|---|---|
| Airport | Ostend-Bruges International Airport (EBOS) |
| Time | Latitude | Longitude | Altitude | Speed | Heading |
|---|---|---|---|---|---|
| 2026-05-01 14:52 | 53.62856 | 9.99084 | 46 ft | 0 kts | 63° |
| 2026-05-01 15:03 | 53.62850 | 9.99065 | 46 ft | 2 kts | 63° |
| 2026-05-01 15:03 | 53.62843 | 9.99040 | 46 ft | 2 kts | 63° |
| 2026-05-01 15:03 | 53.62835 | 9.99016 | 43 ft | 2 kts | 63° |
| 2026-05-01 15:04 | 53.62828 | 9.98992 | 45 ft | 2 kts | 63° |
| 2026-05-01 15:04 | 53.62820 | 9.98967 | 43 ft | 2 kts | 63° |
| 2026-05-01 15:04 | 53.62813 | 9.98943 | 45 ft | 2 kts | 63° |
| 2026-05-01 15:04 | 53.62809 | 9.98929 | 43 ft | 0 kts | 63° |
| 2026-05-01 15:06 | 53.62815 | 9.98930 | 44 ft | 2 kts | 5° |
| 2026-05-01 15:06 | 53.62872 | 9.98937 | 46 ft | 14 kts | 25° |
| 2026-05-01 15:06 | 53.62952 | 9.99080 | 46 ft | 18 kts | 51° |
| 2026-05-01 15:06 | 53.63024 | 9.99219 | 46 ft | 12 kts | 36° |
| 2026-05-01 15:07 | 53.63071 | 9.99218 | 46 ft | 0 kts | 328° |
| 2026-05-01 15:07 | 53.63083 | 9.99203 | 44 ft | 10 kts | 319° |
| 2026-05-01 15:07 | 53.63088 | 9.99107 | 45 ft | 11 kts | 268° |
| 2026-05-01 15:07 | 53.63056 | 9.98909 | 45 ft | 29 kts | 244° |
| 2026-05-01 15:08 | 53.62828 | 9.98406 | 43 ft | 90 kts | 230° |
| 2026-05-01 15:08 | 53.62276 | 9.97304 | 63 ft | 149 kts | 226° |
| 2026-05-01 15:08 | 53.61605 | 9.95971 | 779 ft | 149 kts | 224° |
| 2026-05-01 15:08 | 53.60930 | 9.94616 | 1528 ft | 154 kts | 227° |
| 2026-05-01 15:09 | 53.60227 | 9.93158 | 2206 ft | 172 kts | 229° |
| 2026-05-01 15:09 | 53.59390 | 9.91429 | 2569 ft | 208 kts | 228° |
| 2026-05-01 15:09 | 53.58458 | 9.89499 | 3262 ft | 215 kts | 227° |
| 2026-05-01 15:09 | 53.57503 | 9.87523 | 3957 ft | 220 kts | 228° |
| 2026-05-01 15:10 | 53.56600 | 9.85458 | 4782 ft | 224 kts | 237° |
| 2026-05-01 15:10 | 53.55323 | 9.80050 | 5785 ft | 265 kts | 248° |
| 2026-05-01 15:10 | 53.54713 | 9.77100 | 6778 ft | 269 kts | 248° |
| 2026-05-01 15:11 | 53.54087 | 9.74109 | 7727 ft | 272 kts | 247° |
| 2026-05-01 15:11 | 53.52785 | 9.68018 | 9553 ft | 281 kts | 246° |
| 2026-05-01 15:11 | 53.52106 | 9.64902 | 10102 ft | 286 kts | 246° |
| 2026-05-01 15:12 | 53.51418 | 9.61759 | 10308 ft | 287 kts | 246° |
| 2026-05-01 15:12 | 53.50002 | 9.55347 | 11232 ft | 305 kts | 246° |
| 2026-05-01 15:12 | 53.49226 | 9.51861 | 11535 ft | 329 kts | 246° |
| 2026-05-01 15:13 | 53.47037 | 9.41994 | 13695 ft | 343 kts | 246° |
| 2026-05-01 15:14 | 53.45340 | 9.34401 | 15315 ft | 351 kts | 247° |
| 2026-05-01 15:14 | 53.44486 | 9.30598 | 16107 ft | 355 kts | 247° |
| 2026-05-01 15:14 | 53.42716 | 9.22752 | 17710 ft | 364 kts | 247° |
| 2026-05-01 15:15 | 53.40900 | 9.14721 | 19221 ft | 373 kts | 247° |
| 2026-05-01 15:15 | 53.39040 | 9.06524 | 20628 ft | 380 kts | 247° |
| 2026-05-01 15:16 | 53.37134 | 8.98148 | 21997 ft | 389 kts | 247° |
| 2026-05-01 15:16 | 53.35183 | 8.89615 | 23325 ft | 397 kts | 247° |
| 2026-05-01 15:17 | 53.33214 | 8.80866 | 24502 ft | 405 kts | 248° |
| 2026-05-01 15:18 | 53.30251 | 8.67475 | 26175 ft | 414 kts | 248° |
| 2026-05-01 15:18 | 53.29246 | 8.62941 | 26680 ft | 418 kts | 248° |
| 2026-05-01 15:19 | 53.25380 | 8.49755 | 28180 ft | 426 kts | 241° |
| 2026-05-01 15:19 | 53.22609 | 8.40919 | 29097 ft | 433 kts | 242° |
| 2026-05-01 15:19 | 53.21214 | 8.36453 | 29537 ft | 437 kts | 242° |
| 2026-05-01 15:20 | 53.18380 | 8.27403 | 30351 ft | 443 kts | 242° |
| 2026-05-01 15:20 | 53.16943 | 8.22833 | 30692 ft | 446 kts | 242° |
| 2026-05-01 15:20 | 53.15495 | 8.18241 | 31048 ft | 449 kts | 242° |
| 2026-05-01 15:21 | 53.14038 | 8.13631 | 31421 ft | 450 kts | 242° |
| 2026-05-01 15:21 | 53.12579 | 8.09025 | 31879 ft | 449 kts | 243° |
| 2026-05-01 15:21 | 53.11127 | 8.04450 | 32387 ft | 446 kts | 243° |
| 2026-05-01 15:21 | 53.09680 | 7.99902 | 32880 ft | 444 kts | 243° |
| 2026-05-01 15:22 | 53.06792 | 7.90846 | 33765 ft | 441 kts | 243° |
| 2026-05-01 15:22 | 53.05354 | 7.86349 | 34230 ft | 440 kts | 243° |
| 2026-05-01 15:22 | 53.03922 | 7.81881 | 34628 ft | 438 kts | 243° |
| 2026-05-01 15:23 | 53.02492 | 7.77426 | 34976 ft | 436 kts | 243° |
| 2026-05-01 15:23 | 53.01063 | 7.72982 | 35310 ft | 435 kts | 243° |
| 2026-05-01 15:23 | 52.99638 | 7.68560 | 35645 ft | 434 kts | 243° |
| 2026-05-01 15:23 | 52.98214 | 7.64145 | 35969 ft | 433 kts | 243° |
| 2026-05-01 15:24 | 52.96794 | 7.59750 | 36291 ft | 432 kts | 243° |
| 2026-05-01 15:24 | 52.95374 | 7.55367 | 36636 ft | 430 kts | 243° |
| 2026-05-01 15:24 | 52.93957 | 7.51001 | 36948 ft | 429 kts | 243° |
| 2026-05-01 15:24 | 52.92541 | 7.46646 | 37254 ft | 429 kts | 242° |
| 2026-05-01 15:25 | 52.91145 | 7.42359 | 37518 ft | 428 kts | 243° |
| 2026-05-01 15:25 | 52.89731 | 7.38023 | 37821 ft | 428 kts | 243° |
| 2026-05-01 15:25 | 52.88317 | 7.33696 | 38105 ft | 426 kts | 243° |
| 2026-05-01 15:25 | 52.86906 | 7.29385 | 38283 ft | 427 kts | 243° |
| 2026-05-01 15:26 | 52.84068 | 7.20738 | 38256 ft | 428 kts | 242° |
| 2026-05-01 15:26 | 52.81214 | 7.12073 | 38269 ft | 432 kts | 242° |
| 2026-05-01 15:27 | 52.78329 | 7.03345 | 38261 ft | 432 kts | 242° |
| 2026-05-01 15:28 | 52.74013 | 6.90344 | 38267 ft | 432 kts | 242° |
| 2026-05-01 15:28 | 52.71120 | 6.81670 | 38252 ft | 431 kts | 242° |
| 2026-05-01 15:29 | 52.66769 | 6.68681 | 38239 ft | 431 kts | 242° |
| 2026-05-01 15:30 | 52.60952 | 6.51416 | 38239 ft | 430 kts | 242° |
| 2026-05-01 15:31 | 52.52196 | 6.25658 | 38234 ft | 430 kts | 241° |
| 2026-05-01 15:32 | 52.46349 | 6.08605 | 38242 ft | 430 kts | 241° |
| 2026-05-01 15:34 | 52.37623 | 5.83367 | 38231 ft | 425 kts | 240° |